< < Back
Terminal Aerodrome Forecast


Current Version              Previous Versions:   1  2  3  4  5  6  7  8  9  

Terminal Aerodrome Forecast

882
FTUS42 KFFC 132337
TAFPDK
TAF
KPDK 132337Z 1400/1424 34014KT P6SM SKC
     FM140200 35008KT P6SM FEW200
     FM140600 03004KT P6SM SCT150
     FM141200 10008KT P6SM BKN150
     FM142100 14008KT P6SM BKN150=



Latest METAR

606
SAUS70 KWBC 140600 RRO
MTRPDK
METAR KPDK 140553Z AUTO 00000KT 10SM CLR M02/M14 A3032 RMK AO2 SLP287
T10221139 10017 21028 56016 TSNO


USA.gov is the U.S. government's official web portal to all federal, state and local government web resources and services.